sensor_id;sensor_type;location;lat;lon;timestamp;pressure;altitude;pressure_sealevel;temperature;humidity
49030;BME280;43337;52.070;4.508;2023-05-16T00:02:14;102178.25;;;8.31;100.00
49030;BME280;43337;52.070;4.508;2023-05-16T00:04:40;102199.16;;;8.40;100.00
49030;BME280;43337;52.070;4.508;2023-05-16T00:07:05;102193.06;;;8.35;100.00
49030;BME280;43337;52.070;4.508;2023-05-16T00:09:31;102194.81;;;8.36;100.00
49030;BME280;43337;52.070;4.508;2023-05-16T00:11:57;102189.59;;;8.33;100.00
49030;BME280;43337;52.070;4.508;2023-05-16T00:14:23;102197.47;;;8.33;100.00
49030;BME280;43337;52.070;4.508;2023-05-16T00:16:50;102187.91;;;8.27;100.00
49030;BME280;43337;52.070;4.508;2023-05-16T00:19:15;102200.97;;;8.32;100.00
49030;BME280;43337;52.070;4.508;2023-05-16T00:21:41;102200.13;;;8.28;100.00
49030;BME280;43337;52.070;4.508;2023-05-16T00:24:07;102203.69;;;8.24;100.00
49030;BME280;43337;52.070;4.508;2023-05-16T00:26:32;102191.50;;;8.20;100.00
49030;BME280;43337;52.070;4.508;2023-05-16T00:28:58;102201.09;;;8.23;100.00
49030;BME280;43337;52.070;4.508;2023-05-16T00:31:23;102195.84;;;8.21;100.00
49030;BME280;43337;52.070;4.508;2023-05-16T00:33:49;102203.78;;;8.15;100.00
49030;BME280;43337;52.070;4.508;2023-05-16T00:36:14;102205.50;;;8.18;100.00
49030;BME280;43337;52.070;4.508;2023-05-16T00:38:39;102194.22;;;8.11;100.00
49030;BME280;43337;52.070;4.508;2023-05-16T00:41:05;102205.53;;;8.15;100.00
49030;BME280;43337;52.070;4.508;2023-05-16T00:43:30;102199.50;;;8.08;100.00
49030;BME280;43337;52.070;4.508;2023-05-16T00:45:55;102192.47;;;8.07;100.00
49030;BME280;43337;52.070;4.508;2023-05-16T00:48:22;102195.13;;;8.05;100.00
49030;BME280;43337;52.070;4.508;2023-05-16T00:50:47;102198.63;;;8.06;100.00
49030;BME280;43337;52.070;4.508;2023-05-16T00:53:13;102205.59;;;8.08;100.00
49030;BME280;43337;52.070;4.508;2023-05-16T00:55:39;102183.00;;;7.95;100.00
49030;BME280;43337;52.070;4.508;2023-05-16T00:58:05;102195.16;;;8.02;100.00
49030;BME280;43337;52.070;4.508;2023-05-16T01:00:31;102203.00;;;8.05;100.00
49030;BME280;43337;52.070;4.508;2023-05-16T01:02:56;102195.25;;;7.96;100.00
49030;BME280;43337;52.070;4.508;2023-05-16T01:05:22;102194.38;;;7.94;100.00
49030;BME280;43337;52.070;4.508;2023-05-16T01:07:48;102210.06;;;8.00;100.00
49030;BME280;43337;52.070;4.508;2023-05-16T01:10:14;102193.47;;;7.95;100.00
49030;BME280;43337;52.070;4.508;2023-05-16T01:13:02;102197.81;;;7.99;100.00
49030;BME280;43337;52.070;4.508;2023-05-16T01:16:16;102198.72;;;7.95;100.00
49030;BME280;43337;52.070;4.508;2023-05-16T01:18:55;102203.97;;;7.95;100.00
49030;BME280;43337;52.070;4.508;2023-05-16T01:21:48;102196.13;;;7.94;100.00
49030;BME280;43337;52.070;4.508;2023-05-16T01:24:32;102201.41;;;7.92;100.00
49030;BME280;43337;52.070;4.508;2023-05-16T01:26:58;102203.16;;;7.90;100.00
49030;BME280;43337;52.070;4.508;2023-05-16T01:29:25;102186.63;;;7.82;100.00
49030;BME280;43337;52.070;4.508;2023-05-16T01:31:50;102191.84;;;7.83;100.00
49030;BME280;43337;52.070;4.508;2023-05-16T01:34:16;102185.81;;;7.72;100.00
49030;BME280;43337;52.070;4.508;2023-05-16T01:36:54;102204.09;;;7.83;100.00
49030;BME280;43337;52.070;4.508;2023-05-16T01:39:32;102208.50;;;7.81;100.00
49030;BME280;43337;52.070;4.508;2023-05-16T01:42:11;102204.13;;;7.78;100.00
49030;BME280;43337;52.070;4.508;2023-05-16T01:44:49;102197.16;;;7.77;100.00
49030;BME280;43337;52.070;4.508;2023-05-16T01:47:19;102198.09;;;7.70;100.00
49030;BME280;43337;52.070;4.508;2023-05-16T01:50:09;102209.41;;;7.72;100.00
49030;BME280;43337;52.070;4.508;2023-05-16T01:52:44;102211.22;;;7.69;100.00
49030;BME280;43337;52.070;4.508;2023-05-16T01:55:15;102205.94;;;7.73;100.00
49030;BME280;43337;52.070;4.508;2023-05-16T01:57:44;102209.44;;;7.74;100.00
49030;BME280;43337;52.070;4.508;2023-05-16T02:00:11;102200.72;;;7.70;100.00
49030;BME280;43337;52.070;4.508;2023-05-16T02:02:37;102211.19;;;7.72;100.00
49030;BME280;43337;52.070;4.508;2023-05-16T02:05:02;102214.66;;;7.74;100.00
49030;BME280;43337;52.070;4.508;2023-05-16T02:07:28;102212.06;;;7.71;100.00
49030;BME280;43337;52.070;4.508;2023-05-16T02:09:53;102199.97;;;7.57;100.00
49030;BME280;43337;52.070;4.508;2023-05-16T02:12:18;102215.63;;;7.65;100.00
49030;BME280;43337;52.070;4.508;2023-05-16T02:14:44;102216.44;;;7.70;100.00
49030;BME280;43337;52.070;4.508;2023-05-16T02:17:10;102211.22;;;7.69;100.00
49030;BME280;43337;52.070;4.508;2023-05-16T02:19:35;102211.22;;;7.69;100.00
49030;BME280;43337;52.070;4.508;2023-05-16T02:22:01;102202.53;;;7.62;100.00
49030;BME280;43337;52.070;4.508;2023-05-16T02:24:27;102212.09;;;7.65;100.00
49030;BME280;43337;52.070;4.508;2023-05-16T02:26:53;102221.72;;;7.64;100.00
49030;BME280;43337;52.070;4.508;2023-05-16T02:29:18;102220.88;;;7.62;100.00
49030;BME280;43337;52.070;4.508;2023-05-16T02:31:43;102217.44;;;7.55;100.00
49030;BME280;43337;52.070;4.508;2023-05-16T02:34:09;102196.59;;;7.40;100.00
49030;BME280;43337;52.070;4.508;2023-05-16T02:36:35;102209.66;;;7.45;100.00
49030;BME280;43337;52.070;4.508;2023-05-16T02:39:01;102210.56;;;7.42;100.00
49030;BME280;43337;52.070;4.508;2023-05-16T02:41:28;102216.63;;;7.44;100.00
49030;BME280;43337;52.070;4.508;2023-05-16T02:43:53;102213.13;;;7.47;100.00
49030;BME280;43337;52.070;4.508;2023-05-16T02:46:26;102223.59;;;7.50;100.00
49030;BME280;43337;52.070;4.508;2023-05-16T02:48:55;102226.22;;;7.48;100.00
49030;BME280;43337;52.070;4.508;2023-05-16T02:51:22;102235.81;;;7.54;100.00
49030;BME280;43337;52.070;4.508;2023-05-16T02:53:48;102223.59;;;7.51;100.00
49030;BME280;43337;52.070;4.508;2023-05-16T02:56:13;102210.56;;;7.42;100.00
49030;BME280;43337;52.070;4.508;2023-05-16T02:58:39;102197.53;;;7.31;100.00
49030;BME280;43337;52.070;4.508;2023-05-16T03:01:04;102231.47;;;7.45;100.00
49030;BME280;43337;52.070;4.508;2023-05-16T03:03:30;102218.47;;;7.34;100.00
49030;BME280;43337;52.070;4.508;2023-05-16T03:05:57;102219.38;;;7.30;100.00
49030;BME280;43337;52.070;4.508;2023-05-16T03:08:23;102237.66;;;7.38;100.00
49030;BME280;43337;52.070;4.508;2023-05-16T03:10:48;102241.16;;;7.39;100.00
49030;BME280;43337;52.070;4.508;2023-05-16T03:13:13;102221.16;;;7.27;100.00
49030;BME280;43337;52.070;4.508;2023-05-16T03:15:39;102231.59;;;7.31;100.00
49030;BME280;43337;52.070;4.508;2023-05-16T03:18:04;102244.66;;;7.34;100.00
49030;BME280;43337;52.070;4.508;2023-05-16T03:20:30;102250.78;;;7.32;100.00
49030;BME280;43337;52.070;4.508;2023-05-16T03:22:56;102255.16;;;7.31;100.00
49030;BME280;43337;52.070;4.508;2023-05-16T03:25:22;102236.88;;;7.27;100.00
49030;BME280;43337;52.070;4.508;2023-05-16T03:27:49;102237.75;;;7.21;100.00
49030;BME280;43337;52.070;4.508;2023-05-16T03:30:16;102237.75;;;7.24;100.00
49030;BME280;43337;52.070;4.508;2023-05-16T03:32:44;102248.19;;;7.30;100.00
49030;BME280;43337;52.070;4.508;2023-05-16T03:35:09;102246.41;;;7.32;100.00
49030;BME280;43337;52.070;4.508;2023-05-16T03:37:35;102256.03;;;7.35;100.00
49030;BME280;43337;52.070;4.508;2023-05-16T03:40:01;102252.53;;;7.31;100.00
49030;BME280;43337;52.070;4.508;2023-05-16T03:42:30;102247.28;;;7.30;100.00
49030;BME280;43337;52.070;4.508;2023-05-16T03:44:56;102234.25;;;7.21;100.00
49030;BME280;43337;52.070;4.508;2023-05-16T03:47:21;102238.59;;;7.25;100.00
49030;BME280;43337;52.070;4.508;2023-05-16T03:49:47;102234.25;;;7.22;100.00
49030;BME280;43337;52.070;4.508;2023-05-16T03:52:13;102261.25;;;7.38;100.00
49030;BME280;43337;52.070;4.508;2023-05-16T03:54:39;102247.28;;;7.33;100.00
49030;BME280;43337;52.070;4.508;2023-05-16T03:57:04;102255.16;;;7.34;100.00
49030;BME280;43337;52.070;4.508;2023-05-16T03:59:30;102264.66;;;7.48;100.00
49030;BME280;43337;52.070;4.508;2023-05-16T04:01:56;102254.19;;;7.46;100.00
49030;BME280;43337;52.070;4.508;2023-05-16T04:04:23;102253.34;;;7.46;100.00
49030;BME280;43337;52.070;4.508;2023-05-16T04:06:48;102242.00;;;7.41;100.00
49030;BME280;43337;52.070;4.508;2023-05-16T04:09:15;102262.00;;;7.52;100.00
49030;BME280;43337;52.070;4.508;2023-05-16T04:11:41;102252.41;;;7.51;100.00
49030;BME280;43337;52.070;4.508;2023-05-16T04:14:07;102268.97;;;7.55;100.00
49030;BME280;43337;52.070;4.508;2023-05-16T04:16:32;102271.59;;;7.58;100.00
49030;BME280;43337;52.070;4.508;2023-05-16T04:18:57;102268.94;;;7.59;100.00
49030;BME280;43337;52.070;4.508;2023-05-16T04:21:23;102265.44;;;7.61;100.00
49030;BME280;43337;52.070;4.508;2023-05-16T04:23:51;102271.59;;;7.58;100.00
49030;BME280;43337;52.070;4.508;2023-05-16T04:26:16;102263.72;;;7.61;100.00
49030;BME280;43337;52.070;4.508;2023-05-16T04:28:42;102268.03;;;7.64;100.00
49030;BME280;43337;52.070;4.508;2023-05-16T04:31:07;102254.09;;;7.58;100.00
49030;BME280;43337;52.070;4.508;2023-05-16T04:33:33;102267.16;;;7.65;100.00
49030;BME280;43337;52.070;4.508;2023-05-16T04:35:58;102271.47;;;7.73;100.00
49030;BME280;43337;52.070;4.508;2023-05-16T04:38:24;102266.16;;;7.79;100.00
49030;BME280;43337;52.070;4.508;2023-05-16T04:40:50;102281.88;;;7.84;100.00
49030;BME280;43337;52.070;4.508;2023-05-16T04:43:17;102277.44;;;7.91;100.00
49030;BME280;43337;52.070;4.508;2023-05-16T04:45:43;102277.41;;;7.97;100.00
49030;BME280;43337;52.070;4.508;2023-05-16T04:48:09;102280.84;;;8.02;100.00
49030;BME280;43337;52.070;4.508;2023-05-16T04:50:35;102292.16;;;8.08;100.00
49030;BME280;43337;52.070;4.508;2023-05-16T04:53:01;102283.41;;;8.10;100.00
49030;BME280;43337;52.070;4.508;2023-05-16T04:55:26;102291.22;;;8.19;100.00
49030;BME280;43337;52.070;4.508;2023-05-16T04:57:52;102287.69;;;8.20;100.00
49030;BME280;43337;52.070;4.508;2023-05-16T05:00:17;102292.03;;;8.22;100.00
49030;BME280;43337;52.070;4.508;2023-05-16T05:02:43;102288.53;;;8.22;100.00
49030;BME280;43337;52.070;4.508;2023-05-16T05:05:09;102304.25;;;8.26;100.00
49030;BME280;43337;52.070;4.508;2023-05-16T05:07:34;102304.22;;;8.28;100.00
49030;BME280;43337;52.070;4.508;2023-05-16T05:10:00;102305.91;;;8.33;100.00
49030;BME280;43337;52.070;4.508;2023-05-16T05:12:25;102275.47;;;8.19;100.00
49030;BME280;43337;52.070;4.508;2023-05-16T05:14:52;102303.22;;;8.44;100.00
49030;BME280;43337;52.070;4.508;2023-05-16T05:17:18;102294.47;;;8.47;100.00
49030;BME280;43337;52.070;4.508;2023-05-16T05:19:44;102287.41;;;8.52;100.00
49030;BME280;43337;52.070;4.508;2023-05-16T05:22:09;102308.16;;;8.75;100.00
49030;BME280;43337;52.070;4.508;2023-05-16T05:24:34;102300.13;;;8.89;100.00
49030;BME280;43337;52.070;4.508;2023-05-16T05:27:00;102307.88;;;8.99;100.00
49030;BME280;43337;52.070;4.508;2023-05-16T05:29:25;102319.91;;;9.17;100.00
49030;BME280;43337;52.070;4.508;2023-05-16T05:31:51;102296.19;;;9.23;100.00
49030;BME280;43337;52.070;4.508;2023-05-16T05:34:16;102292.50;;;9.35;100.00
49030;BME280;43337;52.070;4.508;2023-05-16T05:36:41;102296.63;;;9.54;100.00
49030;BME280;43337;52.070;4.508;2023-05-16T05:39:08;102313.81;;;9.77;100.00
49030;BME280;43337;52.070;4.508;2023-05-16T05:41:33;102312.66;;;9.93;100.00
49030;BME280;43337;52.070;4.508;2023-05-16T05:43:59;102309.91;;;10.01;100.00
49030;BME280;43337;52.070;4.508;2023-05-16T05:46:24;102302.06;;;9.99;100.00
49030;BME280;43337;52.070;4.508;2023-05-16T05:48:50;102325.63;;;10.06;100.00
49030;BME280;43337;52.070;4.508;2023-05-16T05:51:16;102320.44;;;10.01;100.00
49030;BME280;43337;52.070;4.508;2023-05-16T05:53:41;102297.09;;;9.81;100.00
49030;BME280;43337;52.070;4.508;2023-05-16T05:56:07;102346.03;;;9.90;100.00
49030;BME280;43337;52.070;4.508;2023-05-16T05:58:32;102309.50;;;9.71;100.00
49030;BME280;43337;52.070;4.508;2023-05-16T06:00:58;102310.56;;;9.60;100.00
49030;BME280;43337;52.070;4.508;2023-05-16T06:03:23;102333.16;;;9.73;100.00
49030;BME280;43337;52.070;4.508;2023-05-16T06:05:48;102322.44;;;9.85;100.00
49030;BME280;43337;52.070;4.508;2023-05-16T06:08:13;102330.06;;;10.02;100.00
49030;BME280;43337;52.070;4.508;2023-05-16T06:10:39;102331.69;;;10.09;100.00
49030;BME280;43337;52.070;4.508;2023-05-16T06:13:04;102324.50;;;10.20;100.00
49030;BME280;43337;52.070;4.508;2023-05-16T06:15:30;102342.47;;;10.48;100.00
49030;BME280;43337;52.070;4.508;2023-05-16T06:17:55;102329.06;;;10.62;100.00
49030;BME280;43337;52.070;4.508;2023-05-16T06:20:22;102334.91;;;10.76;100.00
49030;BME280;43337;52.070;4.508;2023-05-16T06:22:47;102325.09;;;10.86;100.00
49030;BME280;43337;52.070;4.508;2023-05-16T06:25:12;102346.72;;;11.03;100.00
49030;BME280;43337;52.070;4.508;2023-05-16T06:27:38;102340.34;;;11.13;100.00
49030;BME280;43337;52.070;4.508;2023-05-16T06:30:03;102344.69;;;11.14;100.00
49030;BME280;43337;52.070;4.508;2023-05-16T06:32:29;102346.50;;;11.12;100.00
49030;BME280;43337;52.070;4.508;2023-05-16T06:34:56;102345.59;;;11.15;100.00
49030;BME280;43337;52.070;4.508;2023-05-16T06:37:21;102342.88;;;11.18;100.00
49030;BME280;43337;52.070;4.508;2023-05-16T06:39:47;102344.38;;;11.30;100.00
49030;BME280;43337;52.070;4.508;2023-05-16T06:42:13;102347.69;;;11.39;100.00
49030;BME280;43337;52.070;4.508;2023-05-16T06:44:38;102342.91;;;11.58;100.00
49030;BME280;43337;52.070;4.508;2023-05-16T06:47:04;102353.16;;;11.70;100.00
49030;BME280;43337;52.070;4.508;2023-05-16T06:49:29;102337.34;;;11.70;100.00
49030;BME280;43337;52.070;4.508;2023-05-16T06:51:54;102347.72;;;11.78;100.00
49030;BME280;43337;52.070;4.508;2023-05-16T06:54:20;102360.94;;;11.77;100.00
49030;BME280;43337;52.070;4.508;2023-05-16T06:56:45;102339.00;;;11.74;100.00
49030;BME280;43337;52.070;4.508;2023-05-16T06:59:11;102350.19;;;11.86;100.00
49030;BME280;43337;52.070;4.508;2023-05-16T07:01:36;102346.00;;;11.76;100.00
49030;BME280;43337;52.070;4.508;2023-05-16T07:04:02;102359.72;;;11.91;100.00
49030;BME280;43337;52.070;4.508;2023-05-16T07:06:27;102343.88;;;11.93;100.00
49030;BME280;43337;52.070;4.508;2023-05-16T07:08:52;102356.63;;;12.11;100.00
49030;BME280;43337;52.070;4.508;2023-05-16T07:11:18;102335.53;;;12.10;100.00
49030;BME280;43337;52.070;4.508;2023-05-16T07:13:43;102373.63;;;12.35;100.00
49030;BME280;43337;52.070;4.508;2023-05-16T07:16:08;102367.38;;;12.39;100.00
49030;BME280;43337;52.070;4.508;2023-05-16T07:18:34;102358.78;;;12.31;100.00
49030;BME280;43337;52.070;4.508;2023-05-16T07:21:00;102350.13;;;12.25;100.00
49030;BME280;43337;52.070;4.508;2023-05-16T07:23:25;102372.84;;;12.32;100.00
49030;BME280;43337;52.070;4.508;2023-05-16T07:25:50;102361.75;;;12.17;100.00
49030;BME280;43337;52.070;4.508;2023-05-16T07:28:17;102376.53;;;12.25;100.00
49030;BME280;43337;52.070;4.508;2023-05-16T07:30:42;102388.81;;;12.27;100.00
49030;BME280;43337;52.070;4.508;2023-05-16T07:33:08;102377.25;;;12.31;100.00
49030;BME280;43337;52.070;4.508;2023-05-16T07:35:33;102379.66;;;12.40;100.00
49030;BME280;43337;52.070;4.508;2023-05-16T07:37:59;102381.00;;;12.57;100.00
49030;BME280;43337;52.070;4.508;2023-05-16T07:40:24;102386.00;;;12.67;100.00
49030;BME280;43337;52.070;4.508;2023-05-16T07:42:53;102375.94;;;12.82;100.00
49030;BME280;43337;52.070;4.508;2023-05-16T07:45:19;102379.22;;;12.91;100.00
49030;BME280;43337;52.070;4.508;2023-05-16T07:47:44;102379.66;;;13.07;100.00
49030;BME280;43337;52.070;4.508;2023-05-16T07:50:10;102381.03;;;13.20;100.00
49030;BME280;43337;52.070;4.508;2023-05-16T07:52:35;102387.84;;;13.29;100.00
49030;BME280;43337;52.070;4.508;2023-05-16T07:55:02;102386.03;;;13.31;100.00
49030;BME280;43337;52.070;4.508;2023-05-16T07:57:28;102395.56;;;13.37;100.00
49030;BME280;43337;52.070;4.508;2023-05-16T07:59:53;102389.19;;;13.44;100.00
49030;BME280;43337;52.070;4.508;2023-05-16T08:02:20;102385.75;;;13.42;100.00
49030;BME280;43337;52.070;4.508;2023-05-16T08:04:47;102391.84;;;13.44;100.00
49030;BME280;43337;52.070;4.508;2023-05-16T08:07:13;102385.75;;;13.40;100.00
49030;BME280;43337;52.070;4.508;2023-05-16T08:09:38;102399.53;;;13.52;100.00
49030;BME280;43337;52.070;4.508;2023-05-16T08:12:04;102409.81;;;13.62;100.00
49030;BME280;43337;52.070;4.508;2023-05-16T08:14:30;102408.88;;;13.65;100.00
49030;BME280;43337;52.070;4.508;2023-05-16T08:16:57;102390.06;;;13.44;100.00
49030;BME280;43337;52.070;4.508;2023-05-16T08:19:23;102408.72;;;13.40;100.00
49030;BME280;43337;52.070;4.508;2023-05-16T08:21:49;102404.97;;;13.47;100.00
49030;BME280;43337;52.070;4.508;2023-05-16T08:24:14;102400.28;;;13.57;100.00
49030;BME280;43337;52.070;4.508;2023-05-16T08:26:40;102409.75;;;13.64;100.00
49030;BME280;43337;52.070;4.508;2023-05-16T08:29:05;102402.25;;;13.50;100.00
49030;BME280;43337;52.070;4.508;2023-05-16T08:31:31;102404.75;;;13.55;100.00
49030;BME280;43337;52.070;4.508;2023-05-16T08:33:56;102404.16;;;13.75;100.00
49030;BME280;43337;52.070;4.508;2023-05-16T08:36:22;102407.03;;;13.95;100.00
49030;BME280;43337;52.070;4.508;2023-05-16T08:38:48;102410.28;;;14.05;100.00
49030;BME280;43337;52.070;4.508;2023-05-16T08:41:14;102371.88;;;13.91;100.00
49030;BME280;43337;52.070;4.508;2023-05-16T08:43:40;102409.97;;;14.14;100.00
49030;BME280;43337;52.070;4.508;2023-05-16T08:46:06;102401.75;;;14.23;100.00
49030;BME280;43337;52.070;4.508;2023-05-16T08:48:32;102390.16;;;14.26;100.00
49030;BME280;43337;52.070;4.508;2023-05-16T08:50:59;102379.31;;;14.33;100.00
49030;BME280;43337;52.070;4.508;2023-05-16T08:53:31;102393.44;;;14.34;100.00
49030;BME280;43337;52.070;4.508;2023-05-16T08:55:58;102409.53;;;14.28;97.66
49030;BME280;43337;52.070;4.508;2023-05-16T08:58:24;102397.22;;;14.27;99.19
49030;BME280;43337;52.070;4.508;2023-05-16T09:00:50;102412.25;;;14.53;96.75
49030;BME280;43337;52.070;4.508;2023-05-16T09:03:16;102396.72;;;14.69;96.47
49030;BME280;43337;52.070;4.508;2023-05-16T09:05:42;102418.03;;;14.90;96.93
49030;BME280;43337;52.070;4.508;2023-05-16T09:08:07;102414.97;;;15.03;96.63
49030;BME280;43337;52.070;4.508;2023-05-16T09:10:32;102410.78;;;14.96;94.32
49030;BME280;43337;52.070;4.508;2023-05-16T09:12:58;102399.59;;;14.87;94.20
49030;BME280;43337;52.070;4.508;2023-05-16T09:15:30;102422.34;;;14.93;93.33
49030;BME280;43337;52.070;4.508;2023-05-16T09:17:59;102417.00;;;14.95;94.12
49030;BME280;43337;52.070;4.508;2023-05-16T09:20:25;102398.66;;;14.88;94.39
49030;BME280;43337;52.070;4.508;2023-05-16T09:22:52;102402.59;;;15.02;94.99
49030;BME280;43337;52.070;4.508;2023-05-16T09:25:19;102402.09;;;15.16;93.62
49030;BME280;43337;52.070;4.508;2023-05-16T09:27:51;102415.84;;;15.27;92.70
49030;BME280;43337;52.070;4.508;2023-05-16T09:30:20;102421.16;;;15.27;91.39
49030;BME280;43337;52.070;4.508;2023-05-16T09:32:46;102420.84;;;15.11;92.50
49030;BME280;43337;52.070;4.508;2023-05-16T09:35:15;102418.22;;;15.09;92.03
49030;BME280;43337;52.070;4.508;2023-05-16T09:37:45;102410.06;;;15.16;90.86
49030;BME280;43337;52.070;4.508;2023-05-16T09:40:11;102418.38;;;15.30;90.41
49030;BME280;43337;52.070;4.508;2023-05-16T09:42:37;102406.88;;;15.29;89.24
49030;BME280;43337;52.070;4.508;2023-05-16T09:45:03;102402.28;;;15.34;87.56
49030;BME280;43337;52.070;4.508;2023-05-16T09:47:28;102430.81;;;15.53;88.76
49030;BME280;43337;52.070;4.508;2023-05-16T09:49:55;102431.66;;;15.53;88.16
49030;BME280;43337;52.070;4.508;2023-05-16T09:52:20;102420.00;;;15.57;87.24
49030;BME280;43337;52.070;4.508;2023-05-16T09:54:46;102434.69;;;15.68;87.61
49030;BME280;43337;52.070;4.508;2023-05-16T09:57:18;102429.38;;;15.68;85.41
49030;BME280;43337;52.070;4.508;2023-05-16T09:59:44;102413.75;;;15.58;85.01
49030;BME280;43337;52.070;4.508;2023-05-16T10:02:09;102428.72;;;15.84;86.97
49030;BME280;43337;52.070;4.508;2023-05-16T10:04:35;102421.22;;;15.96;84.94
49030;BME280;43337;52.070;4.508;2023-05-16T10:07:02;102419.97;;;16.04;84.86
49030;BME280;43337;52.070;4.508;2023-05-16T10:09:32;102432.13;;;16.32;84.46
49030;BME280;43337;52.070;4.508;2023-05-16T10:12:00;102441.72;;;16.36;80.25
49030;BME280;43337;52.070;4.508;2023-05-16T10:14:33;102436.50;;;16.33;80.26
49030;BME280;43337;52.070;4.508;2023-05-16T10:16:59;102417.16;;;16.29;82.62
49030;BME280;43337;52.070;4.508;2023-05-16T10:19:25;102430.41;;;16.31;80.45
49030;BME280;43337;52.070;4.508;2023-05-16T10:21:55;102443.19;;;16.21;79.16
49030;BME280;43337;52.070;4.508;2023-05-16T10:27:01;102432.63;;;16.20;78.50
49030;BME280;43337;52.070;4.508;2023-05-16T10:29:27;102422.75;;;16.23;79.54
49030;BME280;43337;52.070;4.508;2023-05-16T10:31:53;102425.28;;;16.26;79.22
49030;BME280;43337;52.070;4.508;2023-05-16T10:34:19;102419.44;;;16.18;78.73
49030;BME280;43337;52.070;4.508;2023-05-16T10:36:45;102411.13;;;16.04;78.39
49030;BME280;43337;52.070;4.508;2023-05-16T10:39:11;102410.28;;;16.03;80.05
49030;BME280;43337;52.070;4.508;2023-05-16T10:41:38;102423.19;;;16.13;76.83
49030;BME280;43337;52.070;4.508;2023-05-16T10:44:12;102423.19;;;16.13;74.94
49030;BME280;43337;52.070;4.508;2023-05-16T10:46:38;102411.38;;;16.20;75.76
49030;BME280;43337;52.070;4.508;2023-05-16T10:49:26;102421.19;;;16.18;74.25
49030;BME280;43337;52.070;4.508;2023-05-16T10:52:05;102414.91;;;16.20;76.43
49030;BME280;43337;52.070;4.508;2023-05-16T10:54:35;102418.28;;;16.24;76.31
49030;BME280;43337;52.070;4.508;2023-05-16T10:57:15;102414.97;;;16.19;73.36
49030;BME280;43337;52.070;4.508;2023-05-16T10:59:44;102409.38;;;16.25;76.94
49030;BME280;43337;52.070;4.508;2023-05-16T11:02:27;102406.63;;;16.48;72.12
49030;BME280;43337;52.070;4.508;2023-05-16T11:04:55;102413.06;;;16.65;75.50
49030;BME280;43337;52.070;4.508;2023-05-16T11:07:23;102401.47;;;16.66;75.25
49030;BME280;43337;52.070;4.508;2023-05-16T11:13:01;102402.03;;;16.74;66.76
49030;BME280;43337;52.070;4.508;2023-05-16T11:15:30;102419.91;;;16.91;74.55
49030;BME280;43337;52.070;4.508;2023-05-16T11:18:13;102404.75;;;16.93;67.08
49030;BME280;43337;52.070;4.508;2023-05-16T11:20:40;102389.22;;;16.83;71.46
49030;BME280;43337;52.070;4.508;2023-05-16T11:25:44;102411.94;;;16.91;69.22
49030;BME280;43337;52.070;4.508;2023-05-16T11:28:13;102395.22;;;16.87;70.68
49030;BME280;43337;52.070;4.508;2023-05-16T11:30:48;102410.16;;;16.91;67.41
49030;BME280;43337;52.070;4.508;2023-05-16T11:33:15;102410.53;;;16.82;69.51
49030;BME280;43337;52.070;4.508;2023-05-16T11:35:42;102419.66;;;16.97;71.37
49030;BME280;43337;52.070;4.508;2023-05-16T11:38:14;102426.03;;;17.13;62.76
49030;BME280;43337;52.070;4.508;2023-05-16T11:40:43;102420.66;;;17.15;66.71
49030;BME280;43337;52.070;4.508;2023-05-16T11:43:09;102412.72;;;17.13;66.11
49030;BME280;43337;52.070;4.508;2023-05-16T11:45:35;102428.47;;;17.18;66.81
49030;BME280;43337;52.070;4.508;2023-05-16T11:48:02;102426.63;;;17.20;66.57
49030;BME280;43337;52.070;4.508;2023-05-16T11:50:33;102422.06;;;17.22;66.09
49030;BME280;43337;52.070;4.508;2023-05-16T11:52:59;102432.19;;;17.34;64.84
49030;BME280;43337;52.070;4.508;2023-05-16T11:55:27;102432.50;;;17.47;63.55
49030;BME280;43337;52.070;4.508;2023-05-16T11:57:56;102406.34;;;17.36;62.55
49030;BME280;43337;52.070;4.508;2023-05-16T12:00:23;102427.63;;;17.56;62.70
49030;BME280;43337;52.070;4.508;2023-05-16T12:02:50;102432.28;;;17.51;62.00
49030;BME280;43337;52.070;4.508;2023-05-16T12:05:16;102412.88;;;17.29;61.52
49030;BME280;43337;52.070;4.508;2023-05-16T12:07:44;102425.44;;;17.46;62.25
49030;BME280;43337;52.070;4.508;2023-05-16T12:10:11;102429.59;;;17.51;61.54
49030;BME280;43337;52.070;4.508;2023-05-16T12:12:43;102429.56;;;17.53;61.82
49030;BME280;43337;52.070;4.508;2023-05-16T12:15:09;102424.97;;;17.56;61.21
49030;BME280;43337;52.070;4.508;2023-05-16T12:17:37;102433.28;;;17.68;61.42
49030;BME280;43337;52.070;4.508;2023-05-16T12:20:04;102435.44;;;17.80;61.22
49030;BME280;43337;52.070;4.508;2023-05-16T12:22:31;102432.44;;;17.86;59.25
49030;BME280;43337;52.070;4.508;2023-05-16T12:25:24;102409.88;;;17.76;58.18
49030;BME280;43337;52.070;4.508;2023-05-16T12:27:56;102424.66;;;18.00;59.00
49030;BME280;43337;52.070;4.508;2023-05-16T12:30:23;102421.72;;;18.07;58.38
49030;BME280;43337;52.070;4.508;2023-05-16T12:32:54;102424.69;;;18.18;56.85
49030;BME280;43337;52.070;4.508;2023-05-16T12:35:20;102419.09;;;18.05;57.13
49030;BME280;43337;52.070;4.508;2023-05-16T12:37:48;102427.72;;;18.10;57.37
49030;BME280;43337;52.070;4.508;2023-05-16T12:40:13;102424.91;;;17.96;56.71
49030;BME280;43337;52.070;4.508;2023-05-16T12:42:42;102432.94;;;17.94;57.39
49030;BME280;43337;52.070;4.508;2023-05-16T12:45:13;102431.09;;;17.96;56.05
49030;BME280;43337;52.070;4.508;2023-05-16T12:47:40;102425.00;;;18.12;58.52
49030;BME280;43337;52.070;4.508;2023-05-16T12:50:10;102426.97;;;18.25;55.94
49030;BME280;43337;52.070;4.508;2023-05-16T12:52:59;102432.81;;;18.34;55.31
49030;BME280;43337;52.070;4.508;2023-05-16T12:55:25;102439.03;;;18.34;56.38
49030;BME280;43337;52.070;4.508;2023-05-16T12:57:51;102437.25;;;18.33;56.12